createdAt,value
2022-08-26T00:27:02.277Z,141
2022-08-26T00:47:02.296Z,138
2022-08-26T03:07:02.439Z,135
2022-08-26T03:47:02.465Z,137
2022-08-26T04:07:02.472Z,140
2022-08-26T04:47:03.029Z,144
2022-08-26T05:27:02.653Z,147
2022-08-26T05:47:09.579Z,146
2022-08-26T06:07:02.588Z,154
2022-08-26T06:27:02.600Z,158
2022-08-26T06:47:02.633Z,153
2022-08-26T07:07:02.604Z,150
2022-08-26T07:27:02.677Z,149
2022-08-26T07:47:02.701Z,147
2022-08-26T08:07:02.650Z,148
2022-08-26T08:27:02.796Z,147
2022-08-26T08:47:02.699Z,149
2022-08-26T09:07:02.751Z,146
2022-08-26T09:27:02.710Z,147
2022-08-26T09:47:02.758Z,148
2022-08-26T10:07:02.755Z,147
2022-08-26T10:27:02.760Z,145
2022-08-26T10:47:02.979Z,147
2022-08-26T11:07:02.718Z,147
2022-08-26T11:27:02.833Z,147
2022-08-26T11:47:02.812Z,148
2022-08-26T12:07:02.867Z,145
2022-08-26T12:27:02.867Z,149
2022-08-26T12:47:02.884Z,151
2022-08-26T13:07:02.877Z,150
2022-08-26T13:27:02.887Z,149
2022-08-26T14:07:02.900Z,142
2022-08-26T14:27:03.006Z,137
2022-08-26T14:47:02.985Z,138
2022-08-26T15:07:03.134Z,133
2022-08-26T15:27:02.981Z,132
2022-08-26T15:47:03.044Z,133
2022-08-26T16:27:02.936Z,128
2022-08-26T16:47:03.059Z,126
2022-08-26T17:07:03.231Z,125
2022-08-26T17:27:03.071Z,126
2022-08-26T17:47:03.104Z,126
2022-08-26T18:07:10.079Z,126
2022-08-26T18:27:03.085Z,125
2022-08-26T18:47:10.137Z,125
2022-08-26T19:27:03.032Z,124
2022-08-26T19:47:03.170Z,124
2022-08-26T20:07:03.165Z,124
2022-08-26T20:27:06.935Z,124
2022-08-26T20:47:03.190Z,128
2022-08-26T21:07:03.115Z,137
2022-08-26T21:27:10.256Z,139
2022-08-26T21:47:03.252Z,141
2022-08-26T22:07:03.280Z,142
2022-08-26T22:47:03.419Z,147
2022-08-26T23:27:03.335Z,148
2022-08-26T23:47:03.356Z,148
